Time;durP1;ratioP1;P1;durP2;ratioP2;P2;SDS_P1;SDS_P2;PMS_P1;PMS_P2;Temp;Humidity;BMP_temperature;BMP_pressure;BME280_temperature;BME280_humidity;BME280_pressure;Samples;Min_cycle;Max_cycle;Signal;HPM_P1;HPM_P2
2023/03/21 00:02:25;;;;;;;3.30;3.00;;;;;;;9.66;100.00;98342.06;5073662;28;20769;-74
2023/03/21 00:04:51;;;;;;;4.77;3.03;;;;;;;9.63;100.00;98338.00;5056334;28;20200;-74
2023/03/21 00:07:17;;;;;;;3.23;2.77;;;;;;;9.65;100.00;98345.75;5073944;28;20216;-74
2023/03/21 00:09:44;;;;;;;6.20;3.10;;;;;;;9.61;100.00;98341.88;5073887;28;20574;-74
2023/03/21 00:12:11;;;;;;;6.27;3.17;;;;;;;9.58;100.00;98337.81;5073865;28;20224;-74
2023/03/21 00:14:38;;;;;;;5.80;2.93;;;;;;;9.60;100.00;98343.72;5073805;28;20231;-75
2023/03/21 00:17:04;;;;;;;3.60;3.23;;;;;;;9.61;100.00;98344.53;5073848;28;20215;-74
2023/03/21 00:19:31;;;;;;;6.87;3.60;;;;;;;9.61;100.00;98336.56;5073490;28;20204;-74
2023/03/21 00:21:58;;;;;;;6.90;3.30;;;;;;;9.63;100.00;98332.69;5073357;28;20228;-75
2023/03/21 00:24:24;;;;;;;4.30;3.13;;;;;;;9.63;100.00;98337.16;5072890;28;20690;-74
2023/03/21 00:26:51;;;;;;;4.40;3.07;;;;;;;9.64;100.00;98333.50;5073062;28;20226;-75
2023/03/21 00:29:17;;;;;;;3.87;2.90;;;;;;;9.66;100.00;98326.16;5073337;28;20205;-75
2023/03/21 00:31:44;;;;;;;3.83;2.90;;;;;;;9.64;100.00;98328.22;5073664;28;20550;-75
2023/03/21 00:34:11;;;;;;;4.60;3.30;;;;;;;9.62;100.00;98324.94;5073218;28;20224;-74
2023/03/21 00:36:37;;;;;;;4.73;2.90;;;;;;;9.64;100.00;98321.03;5073596;28;20203;-74
2023/03/21 00:39:05;;;;;;;4.13;3.17;;;;;;;9.62;100.00;98319.63;5073296;28;20685;-74
2023/03/21 00:41:31;;;;;;;5.83;3.07;;;;;;;9.59;100.00;98314.75;5073581;28;20208;-74
2023/03/21 00:43:58;;;;;;;7.00;3.33;;;;;;;9.58;100.00;98310.44;5073499;28;20234;-74
2023/03/21 00:46:25;;;;;;;5.10;3.30;;;;;;;9.58;100.00;98310.44;5073200;28;20682;-74
2023/03/21 00:48:51;;;;;;;3.97;3.47;;;;;;;9.60;100.00;98298.59;5073501;28;20584;-74
2023/03/21 00:51:25;;;;;;;4.93;3.37;;;;;;;9.56;100.00;98301.88;5073487;28;20200;-74
2023/03/21 00:53:55;;;;;;;5.90;3.60;;;;;;;9.58;100.00;98294.50;5073252;28;20228;-75
2023/03/21 00:56:22;;;;;;;4.30;3.60;;;;;;;9.55;100.00;98295.72;5073465;28;20300;-75
2023/03/21 00:58:49;;;;;;;6.07;3.77;;;;;;;9.56;100.00;98291.25;5073119;28;20209;-75
2023/03/21 01:01:16;;;;;;;4.97;3.40;;;;;;;9.53;100.00;98289.81;5073385;28;20254;-75
2023/03/21 01:03:49;;;;;;;7.53;3.77;;;;;;;9.55;100.00;98292.28;5073276;28;20221;-75
2023/03/21 01:06:18;;;;;;;6.33;4.13;;;;;;;9.52;100.00;98290.03;5073377;28;20188;-75
2023/03/21 01:08:46;;;;;;;3.90;3.57;;;;;;;9.52;100.00;98295.34;5073010;28;20685;-74
2023/03/21 01:11:16;;;;;;;6.27;3.60;;;;;;;9.48;100.00;98294.13;5073008;28;20204;-74
2023/03/21 01:13:42;;;;;;;5.73;3.70;;;;;;;9.48;100.00;98286.97;5073098;28;20234;-74
2023/03/21 01:16:09;;;;;;;3.93;3.53;;;;;;;9.46;100.00;98288.22;5073147;28;20282;-74
2023/03/21 01:18:39;;;;;;;4.00;3.60;;;;;;;9.41;100.00;98290.66;5073201;28;20200;-74
2023/03/21 01:21:09;;;;;;;5.73;3.70;;;;;;;9.42;100.00;98287.78;5072885;28;20547;-74
2023/03/21 01:23:35;;;;;;;5.23;4.10;;;;;;;9.37;100.00;98281.47;5073042;28;20231;-74
2023/03/21 01:26:02;;;;;;;6.63;4.47;;;;;;;9.40;100.00;98291.66;5073696;28;20231;-75
2023/03/21 01:28:29;;;;;;;6.93;4.47;;;;;;;9.39;100.00;98288.22;5072781;28;20674;-75
2023/03/21 01:30:55;;;;;;;5.00;4.53;;;;;;;9.41;100.00;98286.16;5073212;28;20211;-75
2023/03/21 01:33:23;;;;;;;6.07;4.27;;;;;;;9.41;100.00;98285.38;5072796;28;20240;-75
2023/03/21 01:35:49;;;;;;;5.57;4.73;;;;;;;9.36;100.00;98283.31;5073135;28;20231;-75
2023/03/21 01:38:16;;;;;;;6.90;4.67;;;;;;;9.38;100.00;98280.47;5076975;28;20235;-75
2023/03/21 01:40:45;;;;;;;5.93;4.90;;;;;;;9.34;100.00;98285.38;5076498;28;20211;-75
2023/03/21 01:43:39;;;;;;;5.83;4.83;;;;;;;9.33;100.00;98280.25;5076626;28;20228;-75
2023/03/21 01:46:19;;;;;;;4.80;4.40;;;;;;;9.32;100.00;98275.97;5074201;28;20307;-75
2023/03/21 01:48:51;;;;;;;6.10;4.83;;;;;;;9.35;100.00;98280.84;5076388;28;20551;-74
2023/03/21 01:51:19;;;;;;;8.00;4.90;;;;;;;9.33;100.00;98272.31;5076162;28;20220;-74
2023/03/21 01:53:46;;;;;;;7.67;5.20;;;;;;;9.38;100.00;98275.16;5076414;28;20225;-74
2023/03/21 01:56:17;;;;;;;7.87;5.10;;;;;;;9.37;100.00;98268.22;5058579;28;20672;-74
2023/03/21 01:58:45;;;;;;;5.17;4.47;;;;;;;9.37;100.00;98271.66;5076205;28;20184;-74
2023/03/21 02:01:11;;;;;;;5.20;4.60;;;;;;;9.35;100.00;98264.94;5076392;28;20204;-74
2023/03/21 02:03:49;;;;;;;5.57;4.60;;;;;;;9.36;100.00;98263.91;5076002;28;20727;-74
2023/03/21 02:06:23;;;;;;;7.13;5.07;;;;;;;9.35;100.00;98256.97;5076350;28;20188;-74
2023/03/21 02:08:49;;;;;;;4.87;4.47;;;;;;;9.30;100.00;98259.44;5076330;28;20184;-74
2023/03/21 02:11:17;;;;;;;6.40;4.77;;;;;;;9.29;100.00;98255.16;5076770;28;20221;-74
2023/03/21 02:13:44;;;;;;;6.03;4.30;;;;;;;9.26;100.00;98260.88;5076589;28;20224;-74
2023/03/21 02:16:16;;;;;;;5.60;4.63;;;;;;;9.25;100.00;98254.75;5075869;28;20205;-74
2023/03/21 02:19:05;;;;;;;6.93;4.63;;;;;;;9.24;100.00;98254.97;5076381;28;20211;-74
2023/03/21 02:21:55;;;;;;;6.37;4.63;;;;;;;9.27;100.00;98254.53;5075971;28;20197;-74
2023/03/21 02:24:43;;;;;;;4.87;4.13;;;;;;;9.24;100.00;98252.31;5058235;28;20189;-74
2023/03/21 02:27:21;;;;;;;5.10;4.43;;;;;;;9.22;100.00;98247.19;5058967;28;20203;-74
2023/03/21 02:30:24;;;;;;;7.57;4.87;;;;;;;9.20;100.00;98246.59;5075688;28;20639;-74
2023/03/21 02:33:25;;;;;;;5.70;5.10;;;;;;;9.21;100.00;98236.78;5075683;28;20244;-74
2023/03/21 02:35:54;;;;;;;5.93;4.40;;;;;;;9.20;100.00;98246.59;5041967;28;20213;-74
2023/03/21 02:38:38;;;;;;;5.53;5.00;;;;;;;9.22;100.00;98243.72;5075775;28;20205;-74
2023/03/21 02:41:08;;;;;;;5.97;4.87;;;;;;;9.14;100.00;98242.09;5059480;28;20203;-74
2023/03/21 02:43:55;;;;;;;5.33;4.30;;;;;;;9.17;100.00;98246.19;5057825;28;20225;-74
2023/03/21 02:46:33;;;;;;;6.03;4.67;;;;;;;9.17;100.00;98241.69;5075409;28;20666;-74
2023/03/21 02:49:32;;;;;;;6.37;5.40;;;;;;;9.15;100.00;98237.63;5074223;28;20188;-74
2023/03/21 02:51:59;;;;;;;4.97;4.47;;;;;;;9.13;100.00;98237.00;5075796;28;20232;-74
2023/03/21 02:54:28;;;;;;;6.67;4.87;;;;;;;9.11;100.00;98237.22;5075389;28;20306;-74
2023/03/21 02:56:57;;;;;;;6.00;4.83;;;;;;;9.12;100.00;98233.56;5075354;28;20556;-74
2023/03/21 02:59:27;;;;;;;7.23;4.97;;;;;;;9.13;100.00;98235.19;5074962;28;20690;-74
2023/03/21 03:01:55;;;;;;;7.07;4.53;;;;;;;9.14;100.00;98236.00;5075232;28;20552;-74
2023/03/21 03:04:25;;;;;;;5.30;4.67;;;;;;;9.15;100.00;98234.97;5075177;28;20204;-74
2023/03/21 03:07:10;;;;;;;6.33;5.00;;;;;;;9.12;100.00;98230.06;5074785;28;20579;-74
2023/03/21 03:10:08;;;;;;;5.87;4.43;;;;;;;9.11;100.00;98228.44;5074759;28;20242;-74
2023/03/21 03:12:34;;;;;;;6.97;4.50;;;;;;;9.12;100.00;98222.13;5074963;28;20220;-74
2023/03/21 03:15:11;;;;;;;4.70;4.13;;;;;;;9.13;100.00;98227.22;5074948;28;20221;-74
2023/03/21 03:18:19;;;;;;;4.57;3.97;;;;;;;9.11;100.00;98228.44;5074989;28;20224;-74
2023/03/21 03:21:08;;;;;;;4.60;4.03;;;;;;;9.10;100.00;98227.63;5052898;28;20294;-74
2023/03/21 03:23:43;;;;;;;5.43;3.53;;;;;;;9.11;100.00;98231.09;5074864;28;20224;-74
2023/03/21 03:26:33;;;;;;;4.23;3.83;;;;;;;9.08;100.00;98234.16;5056877;28;20185;-74
2023/03/21 03:29:06;;;;;;;4.77;3.73;;;;;;;9.08;100.00;98228.84;5074263;28;20243;-74
2023/03/21 03:31:43;;;;;;;4.57;3.27;;;;;;;9.03;100.00;98228.66;5074853;28;20215;-74
2023/03/21 03:34:16;;;;;;;6.63;4.17;;;;;;;9.02;100.00;98235.81;5074322;28;20212;-74
2023/03/21 03:36:50;;;;;;;7.03;4.20;;;;;;;9.02;100.00;98227.84;5074329;28;20694;-74
2023/03/21 03:39:18;;;;;;;5.63;4.20;;;;;;;9.04;100.00;98225.78;5075075;28;20184;-74
2023/03/21 03:42:15;;;;;;;5.17;4.23;;;;;;;9.00;100.00;98221.13;5056814;28;20208;-74
2023/03/21 03:44:41;;;;;;;5.43;3.57;;;;;;;9.02;100.00;98225.19;5074336;28;20284;-74
2023/03/21 03:47:32;;;;;;;4.77;3.77;;;;;;;8.98;100.00;98221.31;5073967;28;20282;-74
2023/03/21 03:50:16;;;;;;;7.00;4.47;;;;;;;8.95;100.00;98216.41;5074178;28;20205;-74
2023/03/21 03:52:49;;;;;;;4.20;3.80;;;;;;;8.94;100.00;98212.13;5056154;28;20224;-74
2023/03/21 03:55:20;;;;;;;5.77;4.43;;;;;;;8.94;100.00;98213.97;5074455;28;20209;-74
2023/03/21 03:57:47;;;;;;;6.90;3.70;;;;;;;8.88;100.00;98210.28;5074227;28;20216;-74
2023/03/21 04:00:16;;;;;;;5.00;3.97;;;;;;;8.91;100.00;98204.59;5073908;28;20206;-74
2023/03/21 04:02:42;;;;;;;5.83;4.00;;;;;;;8.94;100.00;98203.34;5073633;28;20220;-74
2023/03/21 04:05:09;;;;;;;4.67;3.93;;;;;;;8.94;100.00;98204.19;5073776;28;20204;-74
2023/03/21 04:07:35;;;;;;;6.30;3.60;;;;;;;8.91;100.00;98209.09;5073470;28;20548;-74
2023/03/21 04:10:02;;;;;;;5.13;4.10;;;;;;;8.88;100.00;98204.19;5073594;28;20594;-74
2023/03/21 04:12:28;;;;;;;5.20;3.83;;;;;;;8.89;100.00;98211.13;5073973;28;20224;-74
2023/03/21 04:14:55;;;;;;;4.77;4.00;;;;;;;8.87;100.00;98205.22;5073518;28;20228;-74
2023/03/21 04:17:21;;;;;;;5.90;3.70;;;;;;;8.83;100.00;98206.63;5073751;28;20200;-74
2023/03/21 04:19:50;;;;;;;3.87;3.53;;;;;;;8.80;100.00;98207.03;5073617;28;20211;-74
2023/03/21 04:22:16;;;;;;;5.67;3.57;;;;;;;8.76;100.00;98200.50;5073189;28;20613;-74
2023/03/21 04:24:43;;;;;;;6.13;3.40;;;;;;;8.71;100.00;98200.31;5072744;28;20238;-74
2023/03/21 04:27:10;;;;;;;5.63;3.70;;;;;;;8.66;100.00;98200.09;5073362;28;20208;-74
2023/03/21 04:29:36;;;;;;;6.90;3.93;;;;;;;8.66;100.00;98200.09;5073192;28;20208;-74
2023/03/21 04:32:02;;;;;;;6.53;4.10;;;;;;;8.62;100.00;98197.03;5073081;28;20228;-74
2023/03/21 04:34:29;;;;;;;5.20;3.40;;;;;;;8.57;100.00;98201.31;5073328;28;20702;-74
2023/03/21 04:36:56;;;;;;;5.97;3.67;;;;;;;8.49;100.00;98196.22;5073447;28;20204;-74
2023/03/21 04:39:23;;;;;;;5.10;3.53;;;;;;;8.42;100.00;98200.69;5073012;28;20208;-74
2023/03/21 04:41:49;;;;;;;4.50;3.47;;;;;;;8.36;100.00;98199.66;5073298;28;20295;-74
2023/03/21 04:44:17;;;;;;;5.73;3.80;;;;;;;8.35;100.00;98192.72;5072956;28;20220;-74
2023/03/21 04:46:43;;;;;;;5.00;3.90;;;;;;;8.29;100.00;98190.06;5073015;28;20596;-74
2023/03/21 04:49:10;;;;;;;4.07;3.67;;;;;;;8.27;100.00;98200.88;5073084;28;20204;-74
2023/03/21 04:51:37;;;;;;;5.00;3.73;;;;;;;8.19;100.00;98201.00;5073076;28;20215;-74
2023/03/21 04:54:04;;;;;;;7.63;4.00;;;;;;;8.12;100.00;98199.38;5072904;28;20208;-74
2023/03/21 04:56:32;;;;;;;5.07;3.43;;;;;;;8.15;100.00;98194.47;5072878;28;20256;-74
2023/03/21 04:59:01;;;;;;;6.27;3.83;;;;;;;8.16;100.00;98201.44;5072372;28;20265;-74
2023/03/21 05:01:29;;;;;;;4.43;3.80;;;;;;;8.15;100.00;98191.84;5073239;28;20204;-74
2023/03/21 05:03:58;;;;;;;4.97;3.90;;;;;;;8.14;100.00;98189.41;5072757;28;20224;-74
2023/03/21 05:06:26;;;;;;;4.90;3.60;;;;;;;8.17;100.00;98194.28;5073714;28;20200;-74
2023/03/21 05:08:53;;;;;;;5.97;3.93;;;;;;;8.23;100.00;98194.34;5073043;28;20295;-74
2023/03/21 05:11:19;;;;;;;5.17;3.70;;;;;;;8.20;100.00;98193.91;5073793;28;20208;-78
2023/03/21 05:13:46;;;;;;;6.83;3.90;;;;;;;8.21;100.00;98187.59;5076778;28;20236;-74
2023/03/21 05:16:12;;;;;;;4.00;3.23;;;;;;;8.26;100.00;98193.94;5076732;28;20274;-75
2023/03/21 05:18:39;;;;;;;6.30;3.80;;;;;;;8.25;100.00;98194.97;5076868;28;20231;-74
2023/03/21 05:21:09;;;;;;;5.03;3.80;;;;;;;8.29;100.00;98203.31;5076702;28;20204;-74
2023/03/21 05:23:37;;;;;;;6.07;3.60;;;;;;;8.27;100.00;98195.56;5076815;28;20224;-74
2023/03/21 05:26:09;;;;;;;6.13;3.33;;;;;;;8.31;100.00;98193.31;5076719;28;20205;-74
2023/03/21 05:28:36;;;;;;;5.03;3.87;;;;;;;8.32;100.00;98194.97;5076246;28;20204;-74
2023/03/21 05:31:03;;;;;;;4.10;3.47;;;;;;;8.29;100.00;98190.88;5076452;28;20208;-74
2023/03/21 05:33:30;;;;;;;6.53;3.67;;;;;;;8.31;100.00;98201.28;5075765;28;20244;-75
2023/03/21 05:35:56;;;;;;;5.47;3.43;;;;;;;8.35;100.00;98198.03;5075973;28;20627;-75
2023/03/21 05:38:23;;;;;;;6.43;3.63;;;;;;;8.30;100.00;98203.13;5075859;28;20204;-74
2023/03/21 05:40:50;;;;;;;4.47;3.73;;;;;;;8.36;100.00;98204.97;5076106;28;20206;-74
2023/03/21 05:43:17;;;;;;;5.10;3.50;;;;;;;8.38;100.00;98200.25;5075668;28;20231;-75
2023/03/21 05:45:43;;;;;;;7.00;3.57;;;;;;;8.43;100.00;98194.38;5075796;28;20497;-74
2023/03/21 05:48:10;;;;;;;8.67;4.20;;;;;;;8.47;100.00;98204.34;5075870;28;20205;-74
2023/03/21 05:50:36;;;;;;;5.07;3.63;;;;;;;8.52;100.00;98194.00;5076313;28;20212;-74
2023/03/21 05:53:02;;;;;;;4.77;3.50;;;;;;;8.61;100.00;98202.53;5075597;28;20232;-74
2023/03/21 05:55:29;;;;;;;4.90;3.87;;;;;;;8.67;100.00;98204.38;5075580;28;20236;-74
2023/03/21 05:57:55;;;;;;;6.73;3.87;;;;;;;8.71;100.00;98208.25;5075202;28;20204;-75
2023/03/21 06:00:21;;;;;;;7.03;3.90;;;;;;;8.75;100.00;98212.13;5075738;28;20215;-75
2023/03/21 06:02:48;;;;;;;8.17;3.97;;;;;;;8.78;100.00;98209.09;5075374;28;20246;-74
2023/03/21 06:05:14;;;;;;;6.40;3.93;;;;;;;8.82;100.00;98212.97;5075639;28;20279;-75
2023/03/21 06:07:41;;;;;;;5.73;3.33;;;;;;;8.87;100.00;98207.88;5075267;28;20208;-75
2023/03/21 06:10:08;;;;;;;6.67;3.70;;;;;;;8.87;100.00;98205.22;5075718;28;20209;-75
2023/03/21 06:12:34;;;;;;;4.10;3.60;;;;;;;8.88;100.00;98210.28;5074630;28;20235;-74
2023/03/21 06:15:01;;;;;;;5.90;3.43;;;;;;;8.90;100.00;98204.78;5074769;28;20207;-74
2023/03/21 06:17:27;;;;;;;4.77;3.30;;;;;;;8.88;100.00;98209.50;5074532;28;20742;-75
2023/03/21 06:19:53;;;;;;;4.27;3.63;;;;;;;8.89;100.00;98211.94;5074746;28;20314;-74
2023/03/21 06:22:20;;;;;;;10.07;3.67;;;;;;;8.87;100.00;98215.81;5075214;28;20230;-74
2023/03/21 06:24:47;;;;;;;4.33;3.20;;;;;;;8.90;100.00;98218.88;5074617;28;20216;-74
2023/03/21 06:27:13;;;;;;;4.73;3.60;;;;;;;8.90;100.00;98213.56;5074823;28;20201;-74
2023/03/21 06:29:40;;;;;;;4.50;3.43;;;;;;;8.94;100.00;98219.25;5075182;28;20205;-74
2023/03/21 06:32:07;;;;;;;5.47;3.37;;;;;;;8.91;100.00;98217.84;5074459;28;20688;-73
2023/03/21 06:34:33;;;;;;;6.73;3.63;;;;;;;8.90;100.00;98215.38;5074978;28;20535;-75
2023/03/21 06:37:00;;;;;;;6.40;3.57;;;;;;;8.90;100.00;98213.56;5074803;28;20231;-74
2023/03/21 06:39:27;;;;;;;6.47;3.60;;;;;;;8.94;100.00;98206.00;5074335;28;20571;-74
2023/03/21 06:41:53;;;;;;;5.93;3.77;;;;;;;8.94;100.00;98212.13;5074898;28;20200;-75
2023/03/21 06:44:20;;;;;;;6.40;3.23;;;;;;;8.92;100.00;98211.50;5074821;28;20205;-75
2023/03/21 06:46:47;;;;;;;6.53;3.50;;;;;;;8.96;100.00;98211.94;5074594;28;20733;-74
2023/03/21 06:49:13;;;;;;;6.47;3.20;;;;;;;8.98;100.00;98207.22;5074402;28;20209;-75
2023/03/21 06:51:39;;;;;;;4.57;3.30;;;;;;;9.00;100.00;98206.00;5075089;28;20205;-75
2023/03/21 06:54:06;;;;;;;4.97;3.60;;;;;;;9.00;100.00;98206.00;5074429;28;20211;-75
2023/03/21 06:56:32;;;;;;;6.53;3.33;;;;;;;9.07;100.00;98201.53;5074320;28;20229;-74
2023/03/21 06:58:59;;;;;;;6.73;3.90;;;;;;;9.06;100.00;98201.72;5074139;28;20205;-72
2023/03/21 07:01:26;;;;;;;5.57;3.37;;;;;;;9.10;100.00;98201.09;5074507;28;20204;-73
2023/03/21 07:03:55;;;;;;;6.27;3.83;;;;;;;9.10;100.00;98202.94;5074016;28;20228;-73
2023/03/21 07:06:21;;;;;;;5.27;3.30;;;;;;;9.22;100.00;98206.59;5074398;28;20224;-73
2023/03/21 07:08:48;;;;;;;4.90;3.40;;;;;;;9.38;100.00;98203.50;5074085;28;20672;-73
2023/03/21 07:11:14;;;;;;;4.17;3.43;;;;;;;9.59;100.00;98211.22;5074358;28;20215;-74
2023/03/21 07:13:41;;;;;;;3.87;2.93;;;;;;;9.72;100.00;98205.84;5074586;28;20239;-74
2023/03/21 07:16:08;;;;;;;4.40;3.03;;;;;;;9.97;100.00;98196.97;5073947;28;20726;-74
2023/03/21 07:18:34;;;;;;;5.93;3.00;;;;;;;9.90;100.00;98200.66;5074045;28;20205;-74
2023/03/21 07:21:01;;;;;;;5.63;3.23;;;;;;;10.09;100.00;98195.31;5073723;28;20525;-74
2023/03/21 07:23:28;;;;;;;3.97;3.10;;;;;;;10.01;100.00;98205.34;5073510;28;20229;-75
2023/03/21 07:25:54;;;;;;;6.43;3.13;;;;;;;9.87;100.00;98203.78;5073611;28;20220;-74
2023/03/21 07:28:22;;;;;;;6.17;3.17;;;;;;;9.87;100.00;98201.91;5073605;28;20559;-74
2023/03/21 07:30:57;;;;;;;5.07;3.10;;;;;;;10.04;100.00;98196.91;5073870;28;20211;-74
2023/03/21 07:33:24;;;;;;;4.20;3.50;;;;;;;9.92;100.00;98199.44;5073572;28;20235;-74
2023/03/21 07:35:51;;;;;;;5.60;3.67;;;;;;;9.98;100.00;98203.91;5073873;28;20315;-74
2023/03/21 07:38:19;;;;;;;3.90;3.33;;;;;;;9.96;100.00;98199.84;5073340;28;20226;-74
2023/03/21 07:40:47;;;;;;;4.53;3.47;;;;;;;10.04;100.00;98210.19;5073752;28;20211;-74
2023/03/21 07:43:15;;;;;;;4.80;3.63;;;;;;;10.09;100.00;98203.28;5073333;28;20228;-74
2023/03/21 07:45:42;;;;;;;3.40;3.10;;;;;;;10.19;100.00;98202.81;5073472;28;20291;-74
2023/03/21 07:48:09;;;;;;;4.70;3.43;;;;;;;10.26;99.81;98200.94;5073504;28;20270;-75
2023/03/21 07:50:36;;;;;;;6.97;3.37;;;;;;;10.26;97.91;98207.06;5074318;28;20219;-74
2023/03/21 07:53:02;;;;;;;7.20;3.47;;;;;;;10.39;97.73;98203.50;5073509;28;20231;-74
2023/03/21 07:55:28;;;;;;;4.93;3.57;;;;;;;10.50;97.16;98205.50;5072801;28;20205;-74
2023/03/21 07:57:55;;;;;;;4.20;3.50;;;;;;;10.53;98.54;98203.22;5073255;28;20204;-74
2023/03/21 08:00:22;;;;;;;5.53;3.43;;;;;;;10.61;96.57;98205.63;5073245;28;20215;-74
2023/03/21 08:02:53;;;;;;;4.97;3.80;;;;;;;10.72;95.74;98206.75;5073009;28;20568;-74
2023/03/21 08:05:24;;;;;;;3.90;3.23;;;;;;;10.72;95.93;98209.41;5073557;28;20211;-74
2023/03/21 08:07:51;;;;;;;3.87;3.13;;;;;;;10.74;95.94;98202.88;5073288;28;20552;-74
2023/03/21 08:10:19;;;;;;;4.93;3.27;;;;;;;10.87;93.65;98208.06;5073371;28;20203;-74
2023/03/21 08:12:46;;;;;;;6.63;4.00;;;;;;;11.00;93.11;98209.81;5072869;28;20708;-74
2023/03/21 08:15:14;;;;;;;4.23;3.53;;;;;;;11.04;92.88;98200.38;5072560;28;20213;-74
2023/03/21 08:17:44;;;;;;;4.17;3.70;;;;;;;11.06;93.00;98203.63;5072582;28;20671;-74
2023/03/21 08:20:14;;;;;;;6.00;3.90;;;;;;;10.96;94.12;98200.66;5072962;28;20195;-75
2023/03/21 08:22:42;;;;;;;6.70;4.20;;;;;;;11.15;92.25;98199.66;5073205;28;20229;-74
2023/03/21 08:25:12;;;;;;;4.17;3.70;;;;;;;11.28;92.22;98200.34;5073180;28;20300;-74
2023/03/21 08:27:38;;;;;;;5.33;3.50;;;;;;;11.26;89.46;98198.91;5073003;28;20692;-74
2023/03/21 08:30:05;;;;;;;4.67;3.67;;;;;;;11.48;88.62;98200.13;5072734;28;20217;-74
2023/03/21 08:32:32;;;;;;;6.17;4.10;;;;;;;11.32;90.71;98196.19;5072832;28;20238;-74
2023/03/21 08:35:00;;;;;;;5.57;3.30;;;;;;;11.53;89.60;98192.28;5072920;28;20241;-74
2023/03/21 08:37:28;;;;;;;5.47;3.57;;;;;;;11.67;87.80;98201.00;5072841;28;20232;-74
2023/03/21 08:39:54;;;;;;;6.87;4.30;;;;;;;11.75;88.63;98190.06;5072921;28;20205;-74
2023/03/21 08:42:21;;;;;;;5.03;4.07;;;;;;;11.78;83.29;98179.75;5072594;28;20291;-74
2023/03/21 08:44:48;;;;;;;4.87;3.33;;;;;;;11.79;84.17;98184.03;5072608;28;20225;-74
2023/03/21 08:47:15;;;;;;;5.80;3.63;;;;;;;11.73;83.85;98181.47;5071676;28;20222;-74
2023/03/21 08:49:44;;;;;;;4.83;3.47;;;;;;;11.84;83.63;98178.84;5072802;28;20202;-75
2023/03/21 08:52:11;;;;;;;6.27;3.50;;;;;;;12.00;83.86;98183.59;5073127;28;20235;-74
2023/03/21 08:54:39;;;;;;;6.40;3.60;;;;;;;11.94;82.02;98167.69;5072851;28;20214;-74
2023/03/21 08:57:07;;;;;;;3.87;2.90;;;;;;;12.10;82.02;98167.88;5073719;28;20229;-74
2023/03/21 08:59:33;;;;;;;4.70;3.20;;;;;;;12.38;80.25;98165.41;5072178;28;20209;-74
2023/03/21 09:01:59;;;;;;;5.07;3.10;;;;;;;12.55;79.58;98166.41;5072268;28;20228;-73
2023/03/21 09:04:26;;;;;;;4.23;3.03;;;;;;;12.55;79.42;98162.91;5072478;28;20212;-73
2023/03/21 09:06:55;;;;;;;5.17;3.53;;;;;;;12.57;77.24;98166.19;5072561;28;20197;-74
2023/03/21 09:09:21;;;;;;;4.83;3.20;;;;;;;12.73;77.31;98163.66;5072796;28;20227;-73
2023/03/21 09:11:47;;;;;;;6.10;2.57;;;;;;;12.82;74.47;98166.78;5072803;28;20208;-73
2023/03/21 09:14:14;;;;;;;5.50;2.77;;;;;;;12.68;73.19;98162.69;5072237;28;20212;-74
2023/03/21 09:16:40;;;;;;;3.87;2.70;;;;;;;12.61;75.30;98168.13;5072144;28;20316;-74
2023/03/21 09:19:07;;;;;;;5.57;2.80;;;;;;;12.63;75.23;98171.41;5072604;28;20205;-74
2023/03/21 09:21:34;;;;;;;4.33;2.67;;;;;;;12.87;73.45;98167.72;5072631;28;20284;-74
2023/03/21 09:24:01;;;;;;;4.10;2.47;;;;;;;12.94;73.75;98172.97;5072560;28;20227;-74
2023/03/21 09:26:28;;;;;;;2.40;2.20;;;;;;;12.95;67.98;98169.22;5072249;28;20295;-74
2023/03/21 09:28:57;;;;;;;4.37;2.30;;;;;;;13.02;70.48;98168.09;5072046;28;20258;-74
2023/03/21 09:31:24;;;;;;;3.50;2.50;;;;;;;12.77;68.53;98170.16;5072259;28;20661;-74
2023/03/21 09:33:52;;;;;;;5.57;2.37;;;;;;;13.05;66.08;98172.16;5071973;28;20309;-74
2023/03/21 09:36:23;;;;;;;2.73;2.30;;;;;;;13.19;64.29;98174.38;5072377;28;20416;-74
2023/03/21 09:38:50;;;;;;;2.87;2.30;;;;;;;13.38;67.74;98169.75;5072324;28;20556;-74
2023/03/21 09:41:37;;;;;;;4.27;2.47;;;;;;;13.45;69.57;98165.91;5072001;28;20208;-74
2023/03/21 09:44:42;;;;;;;5.27;2.50;;;;;;;13.96;64.27;98160.56;5072389;28;20199;-74
2023/03/21 09:47:27;;;;;;;3.30;2.47;;;;;;;13.81;63.29;98160.25;5072577;28;20246;-74
2023/03/21 09:50:16;;;;;;;4.57;2.10;;;;;;;14.12;61.17;98157.13;5072459;28;20196;-74
2023/03/21 09:53:04;;;;;;;1.57;1.33;;;;;;;14.58;57.72;98140.06;5072392;28;20311;-74
2023/03/21 09:55:33;;;;;;;4.20;1.60;;;;;;;14.80;57.19;98149.00;5072094;28;20211;-74
2023/03/21 09:58:06;;;;;;;2.07;1.40;;;;;;;14.98;57.94;98152.25;5073463;28;20224;-74
2023/03/21 10:00:44;;;;;;;1.83;1.20;;;;;;;14.75;56.99;98141.69;5075670;28;20668;-74
2023/03/21 10:03:22;;;;;;;2.00;1.20;;;;;;;14.89;56.60;98148.34;5075658;28;20227;-74
2023/03/21 10:05:51;;;;;;;1.80;1.23;;;;;;;14.96;57.02;98132.91;5075741;28;20188;-74
2023/03/21 10:08:26;;;;;;;2.40;1.30;;;;;;;14.83;54.14;98137.81;5075743;28;20200;-73
2023/03/21 10:11:00;;;;;;;5.13;1.97;;;;;;;14.75;56.06;98140.88;5058266;28;20602;-73
2023/03/21 10:13:32;;;;;;;3.17;1.90;;;;;;;14.95;59.93;98127.81;5057807;28;20229;-73
2023/03/21 10:16:01;;;;;;;2.63;1.87;;;;;;;15.11;56.93;98130.47;5075372;28;20197;-73
2023/03/21 10:18:30;;;;;;;3.30;1.57;;;;;;;15.04;56.34;98119.13;5075503;28;20262;-73
2023/03/21 10:20:57;;;;;;;2.43;1.20;;;;;;;15.28;54.36;98120.53;5075064;28;20204;-73
2023/03/21 10:23:29;;;;;;;1.80;1.50;;;;;;;15.03;54.40;98120.19;5075324;28;20255;-74
2023/03/21 10:26:01;;;;;;;3.73;1.90;;;;;;;15.14;55.41;98119.28;5075474;28;20188;-73
2023/03/21 10:28:32;;;;;;;4.80;1.90;;;;;;;15.62;55.17;98123.97;5074868;28;20185;-73
2023/03/21 10:31:03;;;;;;;2.93;1.90;;;;;;;15.58;54.26;98112.13;5075295;28;20618;-73
2023/03/21 10:33:36;;;;;;;2.30;1.63;;;;;;;15.58;56.48;98109.44;5074491;28;20242;-74
2023/03/21 10:36:08;;;;;;;4.20;1.60;;;;;;;15.83;53.18;98113.25;5057692;28;20188;-74
2023/03/21 10:38:35;;;;;;;5.57;1.70;;;;;;;15.92;54.38;98105.59;5056755;28;20189;-74
2023/03/21 10:41:01;;;;;;;2.60;1.40;;;;;;;16.02;54.73;98101.09;5074687;28;20215;-73
2023/03/21 10:43:28;;;;;;;1.90;1.33;;;;;;;15.94;53.07;98085.50;5074173;28;20674;-73
2023/03/21 10:45:55;;;;;;;1.30;1.20;;;;;;;15.93;53.51;98094.56;5074805;28;20303;-73
2023/03/21 10:48:23;;;;;;;1.43;1.30;;;;;;;15.96;53.51;98102.13;5074983;28;20196;-73
2023/03/21 10:50:52;;;;;;;2.60;1.60;;;;;;;16.03;54.12;98097.41;5057241;28;20235;-73
2023/03/21 10:53:23;;;;;;;3.73;1.73;;;;;;;16.40;52.18;98095.63;5074449;28;20224;-73
2023/03/21 10:55:56;;;;;;;2.63;1.70;;;;;;;16.13;53.53;98096.66;5074195;28;20185;-73
2023/03/21 10:58:27;;;;;;;4.33;1.80;;;;;;;15.90;55.42;98103.16;5057167;28;20228;-74
2023/03/21 11:00:58;;;;;;;3.53;1.60;;;;;;;15.91;53.40;98096.72;5057155;28;20193;-74
2023/03/21 11:03:31;;;;;;;2.77;1.60;;;;;;;15.77;52.82;98098.16;5074686;28;20228;-74
2023/03/21 11:06:08;;;;;;;2.80;1.67;;;;;;;15.89;52.19;98098.84;5074589;28;20627;-74
2023/03/21 11:08:41;;;;;;;3.50;1.53;;;;;;;16.12;52.99;98095.88;5073925;28;20200;-74
2023/03/21 11:11:11;;;;;;;2.13;1.63;;;;;;;15.77;53.12;98102.69;5057149;28;20548;-74
2023/03/21 11:13:43;;;;;;;3.83;1.90;;;;;;;16.15;53.01;98090.00;5074466;28;20333;-73
2023/03/21 11:16:18;;;;;;;3.57;1.73;;;;;;;16.30;55.33;98083.97;5074346;28;20314;-73
2023/03/21 11:18:50;;;;;;;2.70;1.90;;;;;;;16.51;53.28;98088.50;5073920;28;20257;-73
2023/03/21 11:21:16;;;;;;;1.53;1.40;;;;;;;16.53;52.68;98080.97;5074428;28;20679;-73
2023/03/21 11:23:50;;;;;;;3.43;1.87;;;;;;;16.15;50.74;98087.31;5055824;28;20660;-73
2023/03/21 11:26:34;;;;;;;2.33;1.70;;;;;;;16.56;52.60;98085.84;5073785;28;20212;-73
2023/03/21 11:29:17;;;;;;;2.63;1.90;;;;;;;15.92;51.57;98082.25;5074343;28;20193;-73
2023/03/21 11:31:44;;;;;;;2.73;1.73;;;;;;;16.24;54.02;98085.00;5074489;28;20594;-73
2023/03/21 11:34:28;;;;;;;1.90;1.70;;;;;;;16.30;50.95;98082.09;5073194;28;20236;-73
2023/03/21 11:37:00;;;;;;;1.80;1.60;;;;;;;16.24;50.92;98082.31;5073726;28;20289;-73
2023/03/21 11:39:39;;;;;;;2.60;1.87;;;;;;;16.24;53.26;98075.06;5074110;28;20295;-74
2023/03/21 11:42:24;;;;;;;4.73;2.50;;;;;;;15.88;53.82;98073.06;5073920;28;20229;-74
2023/03/21 11:45:00;;;;;;;2.50;2.30;;;;;;;15.99;52.96;98072.13;5073769;28;20189;-74
2023/03/21 11:47:26;;;;;;;5.60;2.30;;;;;;;16.00;55.18;98071.06;5073532;28;20192;-74
2023/03/21 11:49:55;;;;;;;2.77;2.20;;;;;;;16.29;54.21;98063.56;5073351;28;20690;-73